sensor_id;sensor_type;location;lat;lon;timestamp;P1;durP1;ratioP1;P2;durP2;ratioP2
3667;SDS011;24099;47.102;15.440;2023-11-21T00:01:37;2.03;;;1.17;;
3667;SDS011;24099;47.102;15.440;2023-11-21T00:04:05;1.75;;;1.27;;
3667;SDS011;24099;47.102;15.440;2023-11-21T00:06:33;3.67;;;1.67;;
3667;SDS011;24099;47.102;15.440;2023-11-21T00:09:02;2.08;;;1.33;;
3667;SDS011;24099;47.102;15.440;2023-11-21T00:11:30;6.53;;;1.80;;
3667;SDS011;24099;47.102;15.440;2023-11-21T00:13:57;1.65;;;1.45;;
3667;SDS011;24099;47.102;15.440;2023-11-21T00:16:25;2.13;;;1.30;;
3667;SDS011;24099;47.102;15.440;2023-11-21T00:18:52;4.18;;;1.13;;
3667;SDS011;24099;47.102;15.440;2023-11-21T00:21:20;1.23;;;0.98;;
3667;SDS011;24099;47.102;15.440;2023-11-21T00:23:47;1.85;;;1.20;;
3667;SDS011;24099;47.102;15.440;2023-11-21T00:26:23;1.70;;;1.10;;
3667;SDS011;24099;47.102;15.440;2023-11-21T00:29:00;1.73;;;1.20;;
3667;SDS011;24099;47.102;15.440;2023-11-21T00:31:29;2.25;;;1.17;;
3667;SDS011;24099;47.102;15.440;2023-11-21T00:33:56;1.58;;;1.08;;
3667;SDS011;24099;47.102;15.440;2023-11-21T00:36:24;6.47;;;1.10;;
3667;SDS011;24099;47.102;15.440;2023-11-21T00:38:53;1.30;;;1.20;;
3667;SDS011;24099;47.102;15.440;2023-11-21T00:41:21;2.13;;;1.25;;
3667;SDS011;24099;47.102;15.440;2023-11-21T00:43:49;2.63;;;0.90;;
3667;SDS011;24099;47.102;15.440;2023-11-21T00:46:17;4.78;;;1.38;;
3667;SDS011;24099;47.102;15.440;2023-11-21T00:48:44;2.25;;;1.10;;
3667;SDS011;24099;47.102;15.440;2023-11-21T00:51:12;2.20;;;1.13;;
3667;SDS011;24099;47.102;15.440;2023-11-21T00:53:39;1.60;;;1.15;;
3667;SDS011;24099;47.102;15.440;2023-11-21T00:56:07;0.98;;;0.90;;
3667;SDS011;24099;47.102;15.440;2023-11-21T00:58:35;1.70;;;1.17;;
3667;SDS011;24099;47.102;15.440;2023-11-21T01:01:04;1.63;;;1.10;;
3667;SDS011;24099;47.102;15.440;2023-11-21T01:03:32;1.58;;;1.33;;
3667;SDS011;24099;47.102;15.440;2023-11-21T01:06:00;2.75;;;1.20;;
3667;SDS011;24099;47.102;15.440;2023-11-21T01:08:27;0.90;;;0.90;;
3667;SDS011;24099;47.102;15.440;2023-11-21T01:10:55;3.25;;;1.42;;
3667;SDS011;24099;47.102;15.440;2023-11-21T01:13:22;7.00;;;1.48;;
3667;SDS011;24099;47.102;15.440;2023-11-21T01:15:54;1.88;;;1.00;;
3667;SDS011;24099;47.102;15.440;2023-11-21T01:18:23;1.88;;;1.27;;
3667;SDS011;24099;47.102;15.440;2023-11-21T01:20:51;1.95;;;1.40;;
3667;SDS011;24099;47.102;15.440;2023-11-21T01:23:19;3.67;;;2.00;;
3667;SDS011;24099;47.102;15.440;2023-11-21T01:25:46;2.42;;;1.42;;
3667;SDS011;24099;47.102;15.440;2023-11-21T01:28:14;2.80;;;1.45;;
3667;SDS011;24099;47.102;15.440;2023-11-21T01:30:41;10.45;;;1.40;;
3667;SDS011;24099;47.102;15.440;2023-11-21T01:33:09;1.95;;;1.10;;
3667;SDS011;24099;47.102;15.440;2023-11-21T01:35:38;2.13;;;1.10;;
3667;SDS011;24099;47.102;15.440;2023-11-21T01:38:06;1.10;;;1.02;;
3667;SDS011;24099;47.102;15.440;2023-11-21T01:40:34;2.17;;;1.30;;
3667;SDS011;24099;47.102;15.440;2023-11-21T01:43:02;4.10;;;1.70;;
3667;SDS011;24099;47.102;15.440;2023-11-21T01:45:29;1.80;;;1.23;;
3667;SDS011;24099;47.102;15.440;2023-11-21T01:47:58;3.50;;;1.23;;
3667;SDS011;24099;47.102;15.440;2023-11-21T01:50:27;2.70;;;1.52;;
3667;SDS011;24099;47.102;15.440;2023-11-21T01:52:56;2.58;;;1.35;;
3667;SDS011;24099;47.102;15.440;2023-11-21T01:55:24;1.70;;;1.40;;
3667;SDS011;24099;47.102;15.440;2023-11-21T01:57:52;1.85;;;1.23;;
3667;SDS011;24099;47.102;15.440;2023-11-21T02:00:21;6.10;;;1.45;;
3667;SDS011;24099;47.102;15.440;2023-11-21T02:02:49;1.60;;;1.35;;
3667;SDS011;24099;47.102;15.440;2023-11-21T02:05:17;1.67;;;1.17;;
3667;SDS011;24099;47.102;15.440;2023-11-21T02:07:46;5.72;;;1.27;;
3667;SDS011;24099;47.102;15.440;2023-11-21T02:10:17;1.48;;;1.00;;
3667;SDS011;24099;47.102;15.440;2023-11-21T02:12:48;1.05;;;1.02;;
3667;SDS011;24099;47.102;15.440;2023-11-21T02:15:16;6.70;;;1.48;;
3667;SDS011;24099;47.102;15.440;2023-11-21T02:17:46;2.83;;;1.30;;
3667;SDS011;24099;47.102;15.440;2023-11-21T02:20:16;4.72;;;1.33;;
3667;SDS011;24099;47.102;15.440;2023-11-21T02:22:48;3.42;;;1.55;;
3667;SDS011;24099;47.102;15.440;2023-11-21T02:25:18;1.75;;;1.30;;
3667;SDS011;24099;47.102;15.440;2023-11-21T02:27:46;4.32;;;1.42;;
3667;SDS011;24099;47.102;15.440;2023-11-21T02:30:14;3.35;;;1.50;;
3667;SDS011;24099;47.102;15.440;2023-11-21T02:32:41;1.73;;;1.27;;
3667;SDS011;24099;47.102;15.440;2023-11-21T02:35:09;2.05;;;1.33;;
3667;SDS011;24099;47.102;15.440;2023-11-21T02:37:37;5.13;;;1.77;;
3667;SDS011;24099;47.102;15.440;2023-11-21T02:40:09;1.77;;;1.45;;
3667;SDS011;24099;47.102;15.440;2023-11-21T02:42:37;1.25;;;1.05;;
3667;SDS011;24099;47.102;15.440;2023-11-21T02:45:06;7.95;;;1.70;;
3667;SDS011;24099;47.102;15.440;2023-11-21T02:47:35;2.58;;;1.35;;
3667;SDS011;24099;47.102;15.440;2023-11-21T02:50:03;2.22;;;1.55;;
3667;SDS011;24099;47.102;15.440;2023-11-21T02:52:33;3.40;;;1.40;;
3667;SDS011;24099;47.102;15.440;2023-11-21T02:55:00;5.28;;;1.38;;
3667;SDS011;24099;47.102;15.440;2023-11-21T02:57:29;9.73;;;1.30;;
3667;SDS011;24099;47.102;15.440;2023-11-21T02:59:57;4.45;;;1.88;;
3667;SDS011;24099;47.102;15.440;2023-11-21T03:02:25;3.20;;;1.33;;
3667;SDS011;24099;47.102;15.440;2023-11-21T03:04:52;2.03;;;1.40;;
3667;SDS011;24099;47.102;15.440;2023-11-21T03:07:20;2.25;;;1.17;;
3667;SDS011;24099;47.102;15.440;2023-11-21T03:09:47;5.78;;;1.30;;
3667;SDS011;24099;47.102;15.440;2023-11-21T03:12:15;5.10;;;1.50;;
3667;SDS011;24099;47.102;15.440;2023-11-21T03:14:44;1.88;;;1.33;;
3667;SDS011;24099;47.102;15.440;2023-11-21T03:17:12;1.15;;;1.05;;
3667;SDS011;24099;47.102;15.440;2023-11-21T03:19:41;2.42;;;1.30;;
3667;SDS011;24099;47.102;15.440;2023-11-21T03:22:09;3.22;;;1.50;;
3667;SDS011;24099;47.102;15.440;2023-11-21T03:24:37;2.17;;;1.50;;
3667;SDS011;24099;47.102;15.440;2023-11-21T03:27:04;2.42;;;1.58;;
3667;SDS011;24099;47.102;15.440;2023-11-21T03:29:33;11.40;;;1.58;;
3667;SDS011;24099;47.102;15.440;2023-11-21T03:32:02;10.32;;;1.48;;
3667;SDS011;24099;47.102;15.440;2023-11-21T03:34:30;4.70;;;1.50;;
3667;SDS011;24099;47.102;15.440;2023-11-21T03:36:57;5.80;;;1.23;;
3667;SDS011;24099;47.102;15.440;2023-11-21T03:39:24;2.00;;;1.27;;
3667;SDS011;24099;47.102;15.440;2023-11-21T03:41:52;1.55;;;1.30;;
3667;SDS011;24099;47.102;15.440;2023-11-21T03:44:21;9.60;;;1.50;;
3667;SDS011;24099;47.102;15.440;2023-11-21T03:46:48;3.85;;;1.42;;
3667;SDS011;24099;47.102;15.440;2023-11-21T03:49:17;3.28;;;1.33;;
3667;SDS011;24099;47.102;15.440;2023-11-21T03:51:44;2.28;;;1.10;;
3667;SDS011;24099;47.102;15.440;2023-11-21T03:54:12;5.45;;;1.40;;
3667;SDS011;24099;47.102;15.440;2023-11-21T03:56:39;1.83;;;1.20;;
3667;SDS011;24099;47.102;15.440;2023-11-21T03:59:07;2.65;;;1.42;;
3667;SDS011;24099;47.102;15.440;2023-11-21T04:01:34;1.30;;;1.10;;
3667;SDS011;24099;47.102;15.440;2023-11-21T04:04:02;1.40;;;1.30;;
3667;SDS011;24099;47.102;15.440;2023-11-21T04:06:31;6.15;;;1.48;;
3667;SDS011;24099;47.102;15.440;2023-11-21T04:08:59;2.25;;;1.45;;
3667;SDS011;24099;47.102;15.440;2023-11-21T04:11:26;2.20;;;1.48;;
3667;SDS011;24099;47.102;15.440;2023-11-21T04:13:55;1.55;;;1.20;;
3667;SDS011;24099;47.102;15.440;2023-11-21T04:16:22;4.32;;;1.30;;
3667;SDS011;24099;47.102;15.440;2023-11-21T04:18:50;1.58;;;1.02;;
3667;SDS011;24099;47.102;15.440;2023-11-21T04:21:18;2.45;;;1.30;;
3667;SDS011;24099;47.102;15.440;2023-11-21T04:23:47;1.27;;;1.17;;
3667;SDS011;24099;47.102;15.440;2023-11-21T04:26:14;2.10;;;1.25;;
3667;SDS011;24099;47.102;15.440;2023-11-21T04:28:42;1.27;;;1.13;;
3667;SDS011;24099;47.102;15.440;2023-11-21T04:31:10;0.90;;;0.88;;
3667;SDS011;24099;47.102;15.440;2023-11-21T04:33:37;1.20;;;1.10;;
3667;SDS011;24099;47.102;15.440;2023-11-21T04:36:05;2.40;;;1.10;;
3667;SDS011;24099;47.102;15.440;2023-11-21T04:38:33;1.92;;;1.15;;
3667;SDS011;24099;47.102;15.440;2023-11-21T04:41:02;1.23;;;1.13;;
3667;SDS011;24099;47.102;15.440;2023-11-21T04:43:29;1.00;;;1.00;;
3667;SDS011;24099;47.102;15.440;2023-11-21T04:45:57;5.22;;;1.35;;
3667;SDS011;24099;47.102;15.440;2023-11-21T04:48:25;0.88;;;0.85;;
3667;SDS011;24099;47.102;15.440;2023-11-21T04:50:52;1.17;;;0.90;;
3667;SDS011;24099;47.102;15.440;2023-11-21T04:53:20;1.63;;;1.10;;
3667;SDS011;24099;47.102;15.440;2023-11-21T04:55:47;2.95;;;1.10;;
3667;SDS011;24099;47.102;15.440;2023-11-21T04:58:30;1.55;;;1.15;;
3667;SDS011;24099;47.102;15.440;2023-11-21T05:00:58;1.85;;;1.20;;
3667;SDS011;24099;47.102;15.440;2023-11-21T05:03:26;1.60;;;1.20;;
3667;SDS011;24099;47.102;15.440;2023-11-21T05:05:55;2.45;;;1.20;;
3667;SDS011;24099;47.102;15.440;2023-11-21T05:08:22;1.75;;;1.20;;
3667;SDS011;24099;47.102;15.440;2023-11-21T05:10:50;1.45;;;1.20;;
3667;SDS011;24099;47.102;15.440;2023-11-21T05:13:19;5.55;;;1.75;;
3667;SDS011;24099;47.102;15.440;2023-11-21T05:15:53;4.32;;;1.83;;
3667;SDS011;24099;47.102;15.440;2023-11-21T05:18:22;2.08;;;1.48;;
3667;SDS011;24099;47.102;15.440;2023-11-21T05:20:52;1.55;;;1.13;;
3667;SDS011;24099;47.102;15.440;2023-11-21T05:23:19;2.95;;;1.13;;
3667;SDS011;24099;47.102;15.440;2023-11-21T05:25:47;1.95;;;1.10;;
3667;SDS011;24099;47.102;15.440;2023-11-21T05:28:14;3.95;;;1.40;;
3667;SDS011;24099;47.102;15.440;2023-11-21T05:30:42;4.03;;;1.42;;
3667;SDS011;24099;47.102;15.440;2023-11-21T05:33:11;2.95;;;1.45;;
3667;SDS011;24099;47.102;15.440;2023-11-21T05:35:38;1.30;;;1.20;;
3667;SDS011;24099;47.102;15.440;2023-11-21T05:38:06;1.95;;;0.90;;
3667;SDS011;24099;47.102;15.440;2023-11-21T05:40:33;1.15;;;1.05;;
3667;SDS011;24099;47.102;15.440;2023-11-21T05:43:02;1.13;;;1.08;;
3667;SDS011;24099;47.102;15.440;2023-11-21T05:45:30;1.08;;;0.95;;
3667;SDS011;24099;47.102;15.440;2023-11-21T05:47:58;1.67;;;1.13;;
3667;SDS011;24099;47.102;15.440;2023-11-21T05:50:27;1.20;;;1.10;;
3667;SDS011;24099;47.102;15.440;2023-11-21T05:52:54;1.05;;;0.80;;
3667;SDS011;24099;47.102;15.440;2023-11-21T05:55:23;1.00;;;1.00;;
3667;SDS011;24099;47.102;15.440;2023-11-21T05:57:51;2.60;;;1.35;;
3667;SDS011;24099;47.102;15.440;2023-11-21T06:00:19;1.25;;;0.95;;
3667;SDS011;24099;47.102;15.440;2023-11-21T06:02:48;1.50;;;1.30;;
3667;SDS011;24099;47.102;15.440;2023-11-21T06:05:17;0.90;;;0.90;;
3667;SDS011;24099;47.102;15.440;2023-11-21T06:07:49;1.60;;;1.15;;
3667;SDS011;24099;47.102;15.440;2023-11-21T06:10:19;1.58;;;1.48;;
3667;SDS011;24099;47.102;15.440;2023-11-21T06:12:47;4.47;;;1.30;;
3667;SDS011;24099;47.102;15.440;2023-11-21T06:15:14;4.63;;;1.70;;
3667;SDS011;24099;47.102;15.440;2023-11-21T06:17:44;4.15;;;1.30;;
3667;SDS011;24099;47.102;15.440;2023-11-21T06:20:14;3.08;;;1.45;;
3667;SDS011;24099;47.102;15.440;2023-11-21T06:22:43;1.80;;;1.50;;
3667;SDS011;24099;47.102;15.440;2023-11-21T06:25:13;2.33;;;1.70;;
3667;SDS011;24099;47.102;15.440;2023-11-21T06:27:41;2.60;;;1.52;;
3667;SDS011;24099;47.102;15.440;2023-11-21T06:30:11;1.48;;;1.35;;
3667;SDS011;24099;47.102;15.440;2023-11-21T06:32:39;2.03;;;1.35;;
3667;SDS011;24099;47.102;15.440;2023-11-21T06:35:07;2.75;;;1.38;;
3667;SDS011;24099;47.102;15.440;2023-11-21T06:37:35;3.05;;;1.85;;
3667;SDS011;24099;47.102;15.440;2023-11-21T06:40:04;5.55;;;2.05;;
3667;SDS011;24099;47.102;15.440;2023-11-21T06:42:34;3.58;;;1.70;;
3667;SDS011;24099;47.102;15.440;2023-11-21T06:45:03;4.95;;;2.88;;
3667;SDS011;24099;47.102;15.440;2023-11-21T06:47:31;4.97;;;2.75;;
3667;SDS011;24099;47.102;15.440;2023-11-21T06:49:59;4.85;;;2.70;;
3667;SDS011;24099;47.102;15.440;2023-11-21T06:52:27;4.03;;;2.22;;
3667;SDS011;24099;47.102;15.440;2023-11-21T06:54:55;5.40;;;2.65;;
3667;SDS011;24099;47.102;15.440;2023-11-21T06:57:22;4.22;;;2.40;;
3667;SDS011;24099;47.102;15.440;2023-11-21T06:59:51;5.47;;;2.10;;
3667;SDS011;24099;47.102;15.440;2023-11-21T07:02:19;5.07;;;2.58;;
3667;SDS011;24099;47.102;15.440;2023-11-21T07:04:47;2.92;;;2.00;;
3667;SDS011;24099;47.102;15.440;2023-11-21T07:07:14;6.40;;;2.60;;
3667;SDS011;24099;47.102;15.440;2023-11-21T07:09:41;6.32;;;2.53;;
3667;SDS011;24099;47.102;15.440;2023-11-21T07:12:09;7.75;;;3.15;;
3667;SDS011;24099;47.102;15.440;2023-11-21T07:14:37;6.03;;;2.80;;
3667;SDS011;24099;47.102;15.440;2023-11-21T07:17:09;3.92;;;1.90;;
3667;SDS011;24099;47.102;15.440;2023-11-21T07:19:38;3.58;;;2.03;;
3667;SDS011;24099;47.102;15.440;2023-11-21T07:22:06;5.82;;;2.60;;
3667;SDS011;24099;47.102;15.440;2023-11-21T07:24:34;4.28;;;2.28;;
3667;SDS011;24099;47.102;15.440;2023-11-21T07:27:02;3.45;;;2.10;;
3667;SDS011;24099;47.102;15.440;2023-11-21T07:29:30;3.40;;;1.98;;
3667;SDS011;24099;47.102;15.440;2023-11-21T07:31:58;4.10;;;1.65;;
3667;SDS011;24099;47.102;15.440;2023-11-21T07:34:27;3.63;;;1.92;;
3667;SDS011;24099;47.102;15.440;2023-11-21T07:36:54;3.95;;;2.33;;
3667;SDS011;24099;47.102;15.440;2023-11-21T07:39:22;3.42;;;2.08;;
3667;SDS011;24099;47.102;15.440;2023-11-21T07:41:50;7.80;;;1.95;;
3667;SDS011;24099;47.102;15.440;2023-11-21T07:44:18;6.28;;;2.85;;
3667;SDS011;24099;47.102;15.440;2023-11-21T07:46:46;4.05;;;2.22;;
3667;SDS011;24099;47.102;15.440;2023-11-21T07:49:14;6.68;;;2.33;;
3667;SDS011;24099;47.102;15.440;2023-11-21T07:51:47;5.60;;;2.05;;
3667;SDS011;24099;47.102;15.440;2023-11-21T07:54:14;3.75;;;2.25;;
3667;SDS011;24099;47.102;15.440;2023-11-21T07:56:42;5.13;;;2.45;;
3667;SDS011;24099;47.102;15.440;2023-11-21T07:59:10;4.20;;;1.92;;
3667;SDS011;24099;47.102;15.440;2023-11-21T08:01:39;7.28;;;2.72;;
3667;SDS011;24099;47.102;15.440;2023-11-21T08:04:08;4.28;;;2.58;;
3667;SDS011;24099;47.102;15.440;2023-11-21T08:06:35;7.10;;;2.90;;
3667;SDS011;24099;47.102;15.440;2023-11-21T08:09:04;4.90;;;2.47;;
3667;SDS011;24099;47.102;15.440;2023-11-21T08:11:33;4.82;;;2.92;;
3667;SDS011;24099;47.102;15.440;2023-11-21T08:14:00;3.83;;;2.55;;
3667;SDS011;24099;47.102;15.440;2023-11-21T08:16:28;4.78;;;2.75;;
3667;SDS011;24099;47.102;15.440;2023-11-21T08:18:55;4.85;;;2.30;;
3667;SDS011;24099;47.102;15.440;2023-11-21T08:21:23;6.88;;;2.88;;
3667;SDS011;24099;47.102;15.440;2023-11-21T08:23:52;6.15;;;2.70;;
3667;SDS011;24099;47.102;15.440;2023-11-21T08:26:21;3.15;;;2.30;;
3667;SDS011;24099;47.102;15.440;2023-11-21T08:28:49;4.65;;;2.50;;
3667;SDS011;24099;47.102;15.440;2023-11-21T08:31:23;5.45;;;2.58;;
3667;SDS011;24099;47.102;15.440;2023-11-21T08:33:51;8.30;;;3.10;;
3667;SDS011;24099;47.102;15.440;2023-11-21T08:36:20;7.40;;;3.45;;
3667;SDS011;24099;47.102;15.440;2023-11-21T08:38:48;5.20;;;2.97;;
3667;SDS011;24099;47.102;15.440;2023-11-21T08:41:17;2.60;;;2.08;;
3667;SDS011;24099;47.102;15.440;2023-11-21T08:43:48;9.93;;;3.22;;
3667;SDS011;24099;47.102;15.440;2023-11-21T08:46:16;3.83;;;2.53;;
3667;SDS011;24099;47.102;15.440;2023-11-21T08:48:44;6.72;;;3.50;;
3667;SDS011;24099;47.102;15.440;2023-11-21T08:51:11;3.63;;;2.72;;
3667;SDS011;24099;47.102;15.440;2023-11-21T08:53:39;4.68;;;3.35;;
3667;SDS011;24099;47.102;15.440;2023-11-21T08:56:08;4.72;;;3.00;;
3667;SDS011;24099;47.102;15.440;2023-11-21T08:58:39;7.78;;;3.55;;
3667;SDS011;24099;47.102;15.440;2023-11-21T09:01:09;7.25;;;3.63;;
3667;SDS011;24099;47.102;15.440;2023-11-21T09:03:37;6.13;;;3.90;;
3667;SDS011;24099;47.102;15.440;2023-11-21T09:06:05;5.68;;;3.47;;
3667;SDS011;24099;47.102;15.440;2023-11-21T09:08:34;7.05;;;3.83;;
3667;SDS011;24099;47.102;15.440;2023-11-21T09:11:02;6.95;;;3.60;;
3667;SDS011;24099;47.102;15.440;2023-11-21T09:13:30;8.30;;;4.00;;
3667;SDS011;24099;47.102;15.440;2023-11-21T09:15:58;9.82;;;4.70;;
3667;SDS011;24099;47.102;15.440;2023-11-21T09:18:27;11.13;;;4.95;;
3667;SDS011;24099;47.102;15.440;2023-11-21T09:20:54;9.10;;;4.57;;
3667;SDS011;24099;47.102;15.440;2023-11-21T09:23:22;8.75;;;4.07;;
3667;SDS011;24099;47.102;15.440;2023-11-21T09:25:50;5.32;;;3.53;;
3667;SDS011;24099;47.102;15.440;2023-11-21T09:28:21;9.13;;;4.05;;
3667;SDS011;24099;47.102;15.440;2023-11-21T09:30:49;14.65;;;5.53;;
3667;SDS011;24099;47.102;15.440;2023-11-21T09:33:16;14.93;;;4.45;;
3667;SDS011;24099;47.102;15.440;2023-11-21T09:35:45;5.63;;;3.75;;
3667;SDS011;24099;47.102;15.440;2023-11-21T09:38:13;14.18;;;3.65;;
3667;SDS011;24099;47.102;15.440;2023-11-21T09:40:41;10.50;;;3.30;;
3667;SDS011;24099;47.102;15.440;2023-11-21T09:43:09;6.47;;;3.95;;
3667;SDS011;24099;47.102;15.440;2023-11-21T09:45:44;6.70;;;3.15;;
3667;SDS011;24099;47.102;15.440;2023-11-21T09:48:13;5.68;;;3.05;;
3667;SDS011;24099;47.102;15.440;2023-11-21T09:50:43;7.00;;;3.88;;
3667;SDS011;24099;47.102;15.440;2023-11-21T09:53:15;7.28;;;3.67;;
3667;SDS011;24099;47.102;15.440;2023-11-21T09:55:46;5.20;;;3.88;;
3667;SDS011;24099;47.102;15.440;2023-11-21T09:58:17;5.90;;;3.60;;
3667;SDS011;24099;47.102;15.440;2023-11-21T10:00:47;7.65;;;4.75;;
3667;SDS011;24099;47.102;15.440;2023-11-21T10:03:16;9.48;;;4.07;;
3667;SDS011;24099;47.102;15.440;2023-11-21T10:05:43;6.38;;;3.63;;
3667;SDS011;24099;47.102;15.440;2023-11-21T10:08:15;9.50;;;3.70;;
3667;SDS011;24099;47.102;15.440;2023-11-21T10:10:43;9.10;;;4.05;;
3667;SDS011;24099;47.102;15.440;2023-11-21T10:13:13;8.52;;;3.83;;
3667;SDS011;24099;47.102;15.440;2023-11-21T10:15:42;8.05;;;3.60;;
3667;SDS011;24099;47.102;15.440;2023-11-21T10:18:13;7.47;;;4.45;;
3667;SDS011;24099;47.102;15.440;2023-11-21T10:20:42;6.78;;;3.63;;
3667;SDS011;24099;47.102;15.440;2023-11-21T10:23:13;7.78;;;4.05;;
3667;SDS011;24099;47.102;15.440;2023-11-21T10:25:41;9.23;;;4.45;;
3667;SDS011;24099;47.102;15.440;2023-11-21T10:28:08;6.72;;;3.90;;
3667;SDS011;24099;47.102;15.440;2023-11-21T10:30:36;6.50;;;3.75;;
3667;SDS011;24099;47.102;15.440;2023-11-21T10:33:05;8.10;;;3.90;;
3667;SDS011;24099;47.102;15.440;2023-11-21T10:35:43;7.20;;;4.05;;
3667;SDS011;24099;47.102;15.440;2023-11-21T10:38:17;8.32;;;3.97;;
3667;SDS011;24099;47.102;15.440;2023-11-21T10:40:46;12.45;;;4.03;;
3667;SDS011;24099;47.102;15.440;2023-11-21T10:43:14;7.25;;;3.53;;
3667;SDS011;24099;47.102;15.440;2023-11-21T10:45:42;8.23;;;3.15;;
3667;SDS011;24099;47.102;15.440;2023-11-21T10:48:10;5.00;;;2.70;;
3667;SDS011;24099;47.102;15.440;2023-11-21T10:50:40;6.47;;;3.20;;
3667;SDS011;24099;47.102;15.440;2023-11-21T10:53:09;4.97;;;3.05;;
3667;SDS011;24099;47.102;15.440;2023-11-21T10:55:39;6.43;;;3.22;;
3667;SDS011;24099;47.102;15.440;2023-11-21T10:58:09;4.53;;;2.85;;
3667;SDS011;24099;47.102;15.440;2023-11-21T11:00:39;4.20;;;2.55;;
3667;SDS011;24099;47.102;15.440;2023-11-21T11:03:08;4.82;;;2.83;;
3667;SDS011;24099;47.102;15.440;2023-11-21T11:05:39;7.82;;;3.10;;
3667;SDS011;24099;47.102;15.440;2023-11-21T11:08:11;8.43;;;3.58;;
3667;SDS011;24099;47.102;15.440;2023-11-21T11:10:45;5.22;;;2.80;;
3667;SDS011;24099;47.102;15.440;2023-11-21T11:13:13;4.18;;;3.25;;
3667;SDS011;24099;47.102;15.440;2023-11-21T11:15:41;4.93;;;2.88;;
3667;SDS011;24099;47.102;15.440;2023-11-21T11:18:09;6.90;;;3.33;;
3667;SDS011;24099;47.102;15.440;2023-11-21T11:20:38;10.15;;;3.33;;
3667;SDS011;24099;47.102;15.440;2023-11-21T11:23:12;7.10;;;3.72;;
3667;SDS011;24099;47.102;15.440;2023-11-21T11:26:00;10.27;;;3.58;;
3667;SDS011;24099;47.102;15.440;2023-11-21T11:28:37;6.90;;;3.08;;
3667;SDS011;24099;47.102;15.440;2023-11-21T11:31:13;6.65;;;3.38;;
3667;SDS011;24099;47.102;15.440;2023-11-21T11:33:52;8.00;;;4.20;;
3667;SDS011;24099;47.102;15.440;2023-11-21T11:36:25;6.38;;;3.88;;
3667;SDS011;24099;47.102;15.440;2023-11-21T11:38:55;9.30;;;4.25;;
3667;SDS011;24099;47.102;15.440;2023-11-21T11:41:25;6.78;;;3.80;;
3667;SDS011;24099;47.102;15.440;2023-11-21T11:43:57;7.20;;;4.40;;
3667;SDS011;24099;47.102;15.440;2023-11-21T11:46:39;6.68;;;4.03;;
3667;SDS011;24099;47.102;15.440;2023-11-21T11:49:08;7.50;;;3.80;;
3667;SDS011;24099;47.102;15.440;2023-11-21T11:51:36;6.95;;;3.78;;
3667;SDS011;24099;47.102;15.440;2023-11-21T11:54:05;6.72;;;4.15;;
3667;SDS011;24099;47.102;15.440;2023-11-21T11:56:34;11.75;;;4.13;;
3667;SDS011;24099;47.102;15.440;2023-11-21T11:59:03;7.95;;;3.63;;
3667;SDS011;24099;47.102;15.440;2023-11-21T12:01:34;6.00;;;3.83;;
3667;SDS011;24099;47.102;15.440;2023-11-21T12:07:00;6.28;;;4.20;;
3667;SDS011;24099;47.102;15.440;2023-11-21T12:09:29;11.40;;;4.18;;
3667;SDS011;24099;47.102;15.440;2023-11-21T12:11:59;7.05;;;4.15;;
3667;SDS011;24099;47.102;15.440;2023-11-21T12:14:28;11.13;;;4.70;;
3667;SDS011;24099;47.102;15.440;2023-11-21T12:16:56;10.93;;;4.30;;
3667;SDS011;24099;47.102;15.440;2023-11-21T12:19:25;6.53;;;3.90;;
3667;SDS011;24099;47.102;15.440;2023-11-21T12:21:52;9.23;;;3.78;;
3667;SDS011;24099;47.102;15.440;2023-11-21T12:24:21;10.82;;;4.40;;
3667;SDS011;24099;47.102;15.440;2023-11-21T12:26:49;9.50;;;4.00;;
3667;SDS011;24099;47.102;15.440;2023-11-21T12:29:17;13.20;;;4.68;;
3667;SDS011;24099;47.102;15.440;2023-11-21T12:31:45;8.13;;;4.20;;
3667;SDS011;24099;47.102;15.440;2023-11-21T12:34:15;6.40;;;4.28;;
3667;SDS011;24099;47.102;15.440;2023-11-21T12:36:43;9.50;;;4.60;;
3667;SDS011;24099;47.102;15.440;2023-11-21T12:39:10;9.88;;;4.50;;
3667;SDS011;24099;47.102;15.440;2023-11-21T12:41:39;7.85;;;3.75;;
3667;SDS011;24099;47.102;15.440;2023-11-21T12:44:09;5.25;;;3.28;;
3667;SDS011;24099;47.102;15.440;2023-11-21T12:46:42;11.68;;;4.05;;
3667;SDS011;24099;47.102;15.440;2023-11-21T12:49:11;9.48;;;4.05;;
3667;SDS011;24099;47.102;15.440;2023-11-21T12:51:42;10.18;;;3.63;;
3667;SDS011;24099;47.102;15.440;2023-11-21T12:54:12;9.32;;;3.15;;
3667;SDS011;24099;47.102;15.440;2023-11-21T12:56:40;3.97;;;2.88;;
3667;SDS011;24099;47.102;15.440;2023-11-21T12:59:12;5.28;;;3.10;;
3667;SDS011;24099;47.102;15.440;2023-11-21T13:01:42;7.07;;;3.25;;
3667;SDS011;24099;47.102;15.440;2023-11-21T13:04:11;7.07;;;3.47;;
3667;SDS011;24099;47.102;15.440;2023-11-21T13:06:39;10.63;;;3.40;;
3667;SDS011;24099;47.102;15.440;2023-11-21T13:09:07;6.32;;;3.47;;
3667;SDS011;24099;47.102;15.440;2023-11-21T13:11:36;10.48;;;2.92;;
3667;SDS011;24099;47.102;15.440;2023-11-21T13:14:06;8.05;;;3.28;;
3667;SDS011;24099;47.102;15.440;2023-11-21T13:16:36;10.15;;;3.25;;
3667;SDS011;24099;47.102;15.440;2023-11-21T13:19:10;3.90;;;2.88;;
3667;SDS011;24099;47.102;15.440;2023-11-21T13:21:38;4.85;;;2.83;;
3667;SDS011;24099;47.102;15.440;2023-11-21T13:24:06;8.73;;;2.85;;
3667;SDS011;24099;47.102;15.440;2023-11-21T13:26:35;7.25;;;2.83;;
3667;SDS011;24099;47.102;15.440;2023-11-21T13:29:02;4.20;;;2.58;;
3667;SDS011;24099;47.102;15.440;2023-11-21T13:31:30;8.32;;;2.72;;
3667;SDS011;24099;47.102;15.440;2023-11-21T13:33:57;4.18;;;2.70;;
3667;SDS011;24099;47.102;15.440;2023-11-21T13:36:31;7.93;;;2.80;;
3667;SDS011;24099;47.102;15.440;2023-11-21T13:39:00;6.47;;;3.00;;
3667;SDS011;24099;47.102;15.440;2023-11-21T13:41:32;5.38;;;3.15;;
3667;SDS011;24099;47.102;15.440;2023-11-21T13:44:00;7.00;;;2.72;;
3667;SDS011;24099;47.102;15.440;2023-11-21T13:46:40;6.65;;;2.97;;
3667;SDS011;24099;47.102;15.440;2023-11-21T13:49:09;4.13;;;2.67;;
3667;SDS011;24099;47.102;15.440;2023-11-21T13:51:38;5.68;;;2.90;;
3667;SDS011;24099;47.102;15.440;2023-11-21T13:54:09;13.88;;;3.20;;
3667;SDS011;24099;47.102;15.440;2023-11-21T13:56:37;5.18;;;2.75;;
3667;SDS011;24099;47.102;15.440;2023-11-21T13:59:06;6.38;;;3.58;;
3667;SDS011;24099;47.102;15.440;2023-11-21T14:01:42;4.38;;;2.95;;
3667;SDS011;24099;47.102;15.440;2023-11-21T14:04:20;5.78;;;3.13;;
3667;SDS011;24099;47.102;15.440;2023-11-21T14:07:05;4.80;;;2.92;;
3667;SDS011;24099;47.102;15.440;2023-11-21T14:09:47;7.97;;;3.03;;
3667;SDS011;24099;47.102;15.440;2023-11-21T14:12:15;6.38;;;2.95;;
3667;SDS011;24099;47.102;15.440;2023-11-21T14:14:43;8.05;;;3.28;;
3667;SDS011;24099;47.102;15.440;2023-11-21T14:17:12;7.60;;;3.10;;
3667;SDS011;24099;47.102;15.440;2023-11-21T14:19:40;5.15;;;3.25;;
3667;SDS011;24099;47.102;15.440;2023-11-21T14:22:10;4.75;;;3.10;;
3667;SDS011;24099;47.102;15.440;2023-11-21T14:24:37;4.80;;;3.08;;
3667;SDS011;24099;47.102;15.440;2023-11-21T14:27:10;5.18;;;2.80;;
3667;SDS011;24099;47.102;15.440;2023-11-21T14:29:38;4.93;;;3.05;;
3667;SDS011;24099;47.102;15.440;2023-11-21T14:32:08;3.83;;;2.72;;
3667;SDS011;24099;47.102;15.440;2023-11-21T14:34:36;5.78;;;2.67;;
3667;SDS011;24099;47.102;15.440;2023-11-21T14:37:06;6.32;;;3.15;;
3667;SDS011;24099;47.102;15.440;2023-11-21T14:39:34;8.52;;;2.78;;
3667;SDS011;24099;47.102;15.440;2023-11-21T14:42:08;11.57;;;2.42;;
3667;SDS011;24099;47.102;15.440;2023-11-21T14:44:35;7.03;;;2.70;;
3667;SDS011;24099;47.102;15.440;2023-11-21T14:47:06;4.40;;;2.75;;
3667;SDS011;24099;47.102;15.440;2023-11-21T14:49:40;4.18;;;2.63;;
3667;SDS011;24099;47.102;15.440;2023-11-21T14:52:17;7.20;;;2.78;;
3667;SDS011;24099;47.102;15.440;2023-11-21T14:54:59;8.25;;;2.83;;
3667;SDS011;24099;47.102;15.440;2023-11-21T14:57:47;5.80;;;2.67;;
3667;SDS011;24099;47.102;15.440;2023-11-21T15:00:16;3.88;;;2.45;;
3667;SDS011;24099;47.102;15.440;2023-11-21T15:03:03;5.30;;;2.50;;